createdAt,value
2018-05-10T19:27:51.443Z,17.39
2018-05-10T19:28:51.053Z,17.45
2018-05-10T19:30:47.197Z,17.37
2018-05-10T19:31:46.065Z,17.37
2018-05-10T19:33:40.970Z,17.41
2018-05-10T19:34:41.046Z,17.35
2018-05-10T19:36:33.478Z,17.32
2018-05-10T19:37:33.854Z,17.27
2018-05-10T19:39:27.945Z,17.17
2018-05-10T19:40:27.995Z,17.14
2018-05-10T19:42:21.076Z,17.10
2018-05-10T19:43:20.524Z,17.13
2018-05-10T19:45:15.956Z,16.99
2018-05-10T19:46:13.942Z,16.97
2018-05-10T19:48:08.662Z,16.88
2018-05-10T19:49:07.210Z,16.90
2018-05-10T19:51:01.199Z,16.74
2018-05-10T19:52:01.779Z,16.72
2018-05-10T19:53:54.024Z,16.73
2018-05-10T19:54:53.469Z,16.72
2018-05-10T19:56:49.095Z,16.67
2018-05-10T19:57:46.275Z,16.65
2018-05-10T19:59:40.302Z,16.64
2018-05-10T20:00:41.210Z,16.64
2018-05-10T20:02:34.456Z,16.70
2018-05-10T20:03:34.478Z,16.67
2018-05-10T20:05:27.830Z,16.69
2018-05-10T20:06:26.042Z,16.67
2018-05-10T20:08:21.717Z,16.62
2018-05-10T20:09:20.151Z,16.70
2018-05-10T20:11:14.148Z,16.64
2018-05-10T20:12:12.964Z,16.64
2018-05-10T20:14:07.551Z,16.65
2018-05-10T20:15:07.413Z,16.67
2018-05-10T20:17:00.390Z,16.72
2018-05-10T20:17:59.115Z,16.72
2018-05-10T20:19:53.501Z,16.72
2018-05-10T20:20:52.056Z,16.73
2018-05-10T20:22:46.379Z,16.70
2018-05-10T20:23:45.617Z,16.70
2018-05-10T20:25:41.194Z,16.70
2018-05-10T20:26:40.057Z,16.72
2018-05-10T20:28:33.622Z,16.62
2018-05-10T20:29:32.694Z,16.69
2018-05-10T20:31:26.477Z,16.64
2018-05-10T20:32:27.424Z,16.67
2018-05-10T20:34:20.301Z,16.59
2018-05-10T20:35:19.160Z,16.64
2018-05-10T20:37:14.305Z,16.62
2018-05-10T20:38:14.139Z,16.58
2018-05-10T20:40:07.676Z,16.49
2018-05-10T20:41:07.411Z,16.54
2018-05-10T20:43:01.280Z,16.52
2018-05-10T20:44:00.020Z,16.58
2018-05-10T20:45:54.774Z,16.61
2018-05-10T20:46:54.225Z,16.57
2018-05-10T20:48:48.219Z,16.58
2018-05-10T20:49:47.897Z,16.55
2018-05-10T20:51:41.944Z,16.55
2018-05-10T20:52:42.384Z,16.55
2018-05-10T20:54:35.706Z,16.61
2018-05-10T20:55:35.599Z,16.58
2018-05-10T20:57:28.935Z,16.58
2018-05-10T20:58:29.193Z,16.54
2018-05-10T21:00:21.609Z,16.49
2018-05-10T21:01:21.352Z,16.42
2018-05-10T21:03:16.444Z,16.29
2018-05-10T21:04:14.668Z,16.44
2018-05-10T21:06:09.364Z,16.40
2018-05-10T21:07:08.967Z,16.32
2018-05-10T21:09:01.855Z,16.26
2018-05-10T21:10:01.112Z,16.24
2018-05-10T21:11:55.549Z,16.24
2018-05-10T21:12:55.643Z,16.10
2018-05-10T21:14:48.069Z,16.16
2018-05-10T21:15:49.021Z,16.17
2018-05-10T21:17:41.429Z,16.13
2018-05-10T21:18:42.393Z,16.17
2018-05-10T21:20:35.320Z,16.08
2018-05-10T21:21:35.314Z,16.05
2018-05-10T21:23:28.185Z,16.09
2018-05-10T21:24:28.114Z,16.06
2018-05-10T21:26:22.014Z,16.13
2018-05-10T21:27:21.797Z,16.13
2018-05-10T21:29:15.294Z,16.06
2018-05-10T21:30:15.077Z,16.05
2018-05-10T21:32:08.090Z,16.06
2018-05-10T21:33:09.040Z,16.03
2018-05-10T21:35:01.989Z,15.98
2018-05-10T21:36:02.404Z,16.00
2018-05-10T21:37:54.820Z,15.99
2018-05-10T21:38:54.819Z,15.99
2018-05-10T21:40:49.233Z,16.03
2018-05-10T21:41:49.166Z,15.99
2018-05-10T21:43:42.089Z,15.81
2018-05-10T21:44:43.005Z,15.83
2018-05-10T21:46:35.444Z,15.87
2018-05-10T21:47:34.881Z,15.85
2018-05-10T21:49:28.908Z,15.73
2018-05-10T21:50:28.785Z,15.72
2018-05-10T21:52:22.160Z,15.78
2018-05-10T21:53:22.147Z,15.68
2018-05-10T21:55:14.784Z,15.65
2018-05-10T21:56:14.608Z,15.52
2018-05-10T21:58:08.967Z,15.48
2018-05-10T21:59:09.543Z,15.43
2018-05-10T22:01:01.839Z,15.44
2018-05-10T22:02:01.083Z,15.43
2018-05-10T22:03:55.179Z,15.45
2018-05-10T22:04:55.009Z,15.43
2018-05-10T22:06:47.939Z,15.45
2018-05-10T22:07:47.848Z,15.44
2018-05-10T22:09:41.797Z,15.47
2018-05-10T22:10:40.967Z,15.38
2018-05-10T22:12:35.136Z,15.44
2018-05-10T22:13:34.607Z,15.44
2018-05-10T22:15:28.310Z,15.43
2018-05-10T22:16:27.777Z,15.44
2018-05-10T22:18:21.282Z,15.45
2018-05-10T22:19:21.057Z,15.36
2018-05-10T22:21:14.517Z,15.32
2018-05-10T22:22:14.939Z,15.33
2018-05-10T22:24:08.421Z,15.27
2018-05-10T22:25:07.494Z,15.32
2018-05-10T22:27:01.273Z,15.23
2018-05-10T22:28:01.185Z,15.22
2018-05-10T22:29:54.554Z,15.14
2018-05-10T22:30:54.727Z,15.15
2018-05-10T22:32:48.519Z,15.14
2018-05-10T22:33:48.445Z,15.11
2018-05-10T22:35:41.326Z,15.04
2018-05-10T22:36:41.339Z,15.01
2018-05-10T22:38:34.704Z,15.05
2018-05-10T22:39:34.302Z,14.93
2018-05-10T22:41:28.589Z,14.87
2018-05-10T22:42:28.147Z,14.86
2018-05-10T22:44:21.946Z,14.83
2018-05-10T22:45:21.403Z,14.89
2018-05-10T22:47:14.824Z,14.86
2018-05-10T22:48:14.411Z,14.85
2018-05-10T22:50:08.732Z,14.97
2018-05-10T22:51:08.140Z,14.96
2018-05-10T22:53:02.070Z,15.03
2018-05-10T22:54:01.440Z,14.99
2018-05-10T22:55:55.000Z,14.97
2018-05-10T22:56:54.884Z,14.95
2018-05-10T22:58:48.755Z,14.96
2018-05-10T22:59:48.304Z,14.87
2018-05-10T23:01:42.200Z,14.92
2018-05-10T23:02:41.151Z,14.93
2018-05-10T23:04:35.268Z,14.96
2018-05-10T23:05:35.403Z,14.86
2018-05-10T23:07:28.979Z,14.95
2018-05-10T23:08:29.374Z,14.85
2018-05-10T23:10:22.243Z,14.83
2018-05-10T23:11:22.217Z,14.70
2018-05-10T23:13:15.113Z,14.86
2018-05-10T23:14:15.107Z,14.70
2018-05-10T23:16:08.494Z,14.73
2018-05-10T23:17:08.969Z,14.74
2018-05-10T23:19:02.837Z,14.71
2018-05-10T23:20:01.383Z,14.66
2018-05-10T23:21:56.142Z,14.56
2018-05-10T23:22:55.148Z,14.64
2018-05-10T23:24:49.142Z,14.48
2018-05-10T23:25:48.314Z,14.33
2018-05-10T23:27:41.976Z,14.49
2018-05-10T23:28:41.584Z,14.40
2018-05-10T23:30:35.367Z,14.31
2018-05-10T23:31:35.310Z,14.30
2018-05-10T23:33:28.695Z,14.30
2018-05-10T23:34:28.237Z,14.34
2018-05-10T23:36:22.092Z,14.30
2018-05-10T23:37:22.519Z,14.33
2018-05-10T23:39:15.969Z,14.31
2018-05-10T23:40:15.422Z,14.30
2018-05-10T23:42:08.825Z,14.21
2018-05-10T23:43:08.708Z,14.23
2018-05-10T23:45:02.788Z,14.15
2018-05-10T23:47:15.526Z,14.09
2018-05-10T23:48:15.513Z,14.18
2018-05-10T23:50:08.937Z,14.13
2018-05-10T23:51:08.538Z,14.16
2018-05-10T23:53:02.221Z,14.08
2018-05-10T23:54:02.225Z,14.11
2018-05-10T23:55:55.682Z,14.08
2018-05-10T23:56:56.095Z,14.05
2018-05-10T23:58:49.496Z,14.04
2018-05-10T23:59:49.002Z,14.00
